createdAt,value
2022-12-25T00:02:44.479Z,99574.89
2022-12-25T00:05:46.260Z,99578.66
2022-12-25T00:08:47.817Z,99576.28
2022-12-25T00:11:49.535Z,99578.71
2022-12-25T00:14:51.291Z,99583.81
2022-12-25T00:17:53.065Z,99586.73
2022-12-25T00:21:13.959Z,99585.02
2022-12-25T00:24:15.688Z,99587.08
2022-12-25T00:27:17.237Z,99591.20
2022-12-25T00:30:19.039Z,99601.42
2022-12-25T00:33:20.785Z,99604.40
2022-12-25T00:36:23.706Z,99610.38
2022-12-25T00:39:25.410Z,99618.05
2022-12-25T00:42:28.608Z,99620.44
2022-12-25T00:45:30.298Z,99624.05
2022-12-25T00:48:32.478Z,99625.05
2022-12-25T00:51:34.368Z,99620.55
2022-12-25T00:54:36.141Z,99622.20
2022-12-25T00:57:37.690Z,99626.65
2022-12-25T01:00:39.638Z,99630.64
2022-12-25T01:03:41.575Z,99633.18
2022-12-25T01:06:43.371Z,99637.16
2022-12-25T01:10:04.448Z,99647.39
2022-12-25T01:13:06.328Z,99651.09
2022-12-25T01:16:10.253Z,99651.88
2022-12-25T01:19:12.114Z,99654.03
2022-12-25T01:22:14.060Z,99667.73
2022-12-25T01:25:15.710Z,99668.11
2022-12-25T01:28:17.376Z,99672.42
2022-12-25T01:31:22.134Z,99677.48
2022-12-25T01:34:24.135Z,99688.05
2022-12-25T01:37:26.029Z,99695.72
2022-12-25T01:40:28.248Z,99701.30
2022-12-25T01:43:32.320Z,99700.98
2022-12-25T01:46:35.049Z,99700.55
2022-12-25T01:49:38.246Z,99703.41
2022-12-25T01:52:40.136Z,99705.13
2022-12-25T01:55:43.438Z,99697.22
2022-12-25T01:58:45.159Z,99700.02
2022-12-25T02:01:46.826Z,99693.73
2022-12-25T02:05:12.684Z,99684.64
2022-12-25T02:08:17.097Z,99681.64
2022-12-25T02:11:37.550Z,99694.22
2022-12-25T02:14:39.556Z,99694.34
2022-12-25T02:17:47.055Z,99693.80
2022-12-25T02:21:10.469Z,99702.05
2022-12-25T02:24:37.261Z,99703.62
2022-12-25T02:28:00.826Z,99702.27
2022-12-25T02:31:39.214Z,99708.83
2022-12-25T02:34:44.974Z,99710.45
2022-12-25T02:37:56.008Z,99714.81
2022-12-25T02:41:00.170Z,99719.00
2022-12-25T02:44:22.724Z,99723.00
2022-12-25T02:47:51.284Z,99728.08
2022-12-25T02:51:12.422Z,99737.29
2022-12-25T02:54:36.840Z,99743.75
2022-12-25T02:58:01.478Z,99738.73
2022-12-25T03:01:26.686Z,99738.75
2022-12-25T03:04:48.391Z,99750.65
2022-12-25T03:07:50.371Z,99750.67
2022-12-25T03:11:33.559Z,99749.78
2022-12-25T03:14:54.464Z,99743.78
2022-12-25T03:17:59.730Z,99749.79
2022-12-25T03:21:20.278Z,99753.28
2022-12-25T03:24:40.789Z,99757.87
2022-12-25T03:27:43.083Z,99756.27
2022-12-25T03:31:14.459Z,99752.80
2022-12-25T03:34:57.613Z,99755.94
2022-12-25T03:38:35.241Z,99747.53
2022-12-25T03:42:18.821Z,99743.70
2022-12-25T03:45:57.770Z,99750.00
2022-12-25T03:49:27.202Z,99747.48
2022-12-25T03:52:48.696Z,99751.05
2022-12-25T03:56:10.265Z,99758.64
2022-12-25T03:59:30.706Z,99759.90
2022-12-25T04:02:51.539Z,99754.95
2022-12-25T04:06:12.322Z,99753.04
2022-12-25T04:09:33.039Z,99753.17
2022-12-25T04:12:53.517Z,99756.25
2022-12-25T04:16:14.453Z,99755.52
2022-12-25T04:19:35.112Z,99759.23
2022-12-25T04:22:55.970Z,99763.73
2022-12-25T04:26:17.687Z,99778.48
2022-12-25T04:29:38.382Z,99780.06
2022-12-25T04:32:58.848Z,99786.21
2022-12-25T04:36:09.333Z,99787.83
2022-12-25T04:39:11.068Z,99785.38
2022-12-25T04:42:12.818Z,99787.21
2022-12-25T04:45:14.754Z,99784.23
2022-12-25T04:48:16.302Z,99784.79
2022-12-25T04:51:24.502Z,99790.48
2022-12-25T04:54:26.229Z,99791.88
2022-12-25T04:57:27.804Z,99787.52
2022-12-25T05:00:29.507Z,99795.10
2022-12-25T05:03:31.434Z,99800.27
2022-12-25T05:06:33.044Z,99802.40
2022-12-25T05:09:34.955Z,99805.19
2022-12-25T05:12:36.645Z,99814.29
2022-12-25T05:15:41.377Z,99812.79
2022-12-25T05:18:43.455Z,99812.73
2022-12-25T05:21:45.044Z,99810.00
2022-12-25T05:24:46.603Z,99804.59
2022-12-25T05:27:53.747Z,99801.34
2022-12-25T05:30:58.638Z,99805.84
2022-12-25T05:34:00.468Z,99802.19
2022-12-25T05:37:02.212Z,99808.73
2022-12-25T05:40:04.144Z,99807.44
2022-12-25T05:43:06.123Z,99813.59
2022-12-25T05:46:09.566Z,99818.31
2022-12-25T05:49:11.291Z,99826.52
2022-12-25T05:52:12.931Z,99827.49
2022-12-25T05:55:14.731Z,99828.01
2022-12-25T05:58:16.453Z,99829.70
2022-12-25T06:01:22.385Z,99839.61
2022-12-25T06:04:24.509Z,99842.64
2022-12-25T06:07:26.135Z,99847.80
2022-12-25T06:10:27.816Z,99853.66
2022-12-25T06:13:29.552Z,99856.14
2022-12-25T06:16:37.651Z,99853.89
2022-12-25T06:19:42.401Z,99851.61
2022-12-25T06:22:44.011Z,99853.46
2022-12-25T06:25:45.584Z,99854.77
2022-12-25T06:28:47.640Z,99864.65
2022-12-25T06:31:49.579Z,99863.58
2022-12-25T06:34:51.326Z,99873.70
2022-12-25T06:37:53.140Z,99871.80
2022-12-25T06:40:54.787Z,99874.75
2022-12-25T06:43:58.695Z,99878.54
2022-12-25T06:47:00.436Z,99884.52
2022-12-25T06:50:02.333Z,99889.34
2022-12-25T06:53:03.988Z,99901.68
2022-12-25T06:56:07.899Z,99908.89
2022-12-25T06:59:11.035Z,99916.41
2022-12-25T07:02:17.774Z,99927.52
2022-12-25T07:05:19.625Z,99930.77
2022-12-25T07:08:21.183Z,99936.56
2022-12-25T07:11:23.373Z,99940.67
2022-12-25T07:14:25.043Z,99944.65
2022-12-25T07:17:26.722Z,99947.25
2022-12-25T07:20:30.069Z,99952.05
2022-12-25T07:23:31.794Z,99958.08
2022-12-25T07:26:33.343Z,99957.83
2022-12-25T07:29:35.234Z,99959.46
2022-12-25T07:32:36.962Z,99966.65
2022-12-25T07:35:38.824Z,99976.20
2022-12-25T07:38:42.156Z,99984.37
2022-12-25T07:41:44.244Z,99989.63
2022-12-25T07:44:45.849Z,99997.16
2022-12-25T07:47:47.407Z,99999.87
2022-12-25T07:50:49.096Z,100006.68
2022-12-25T07:53:50.755Z,100009.07
2022-12-25T07:56:52.956Z,100011.08
2022-12-25T07:59:54.629Z,100013.34
2022-12-25T08:02:56.937Z,100022.94
2022-12-25T08:06:01.181Z,100024.41
2022-12-25T08:09:11.214Z,100024.49
2022-12-25T08:12:12.932Z,100028.68
2022-12-25T08:15:14.626Z,100029.34
2022-12-25T08:18:16.428Z,100026.23
2022-12-25T08:21:18.198Z,100025.77
2022-12-25T08:24:19.760Z,100026.95
2022-12-25T08:27:21.532Z,100017.61
2022-12-25T08:30:23.353Z,100024.27
2022-12-25T08:33:25.257Z,100024.90
2022-12-25T08:36:27.334Z,100028.46
2022-12-25T08:39:29.028Z,100032.27
2022-12-25T08:42:30.738Z,100031.77
2022-12-25T08:45:35.227Z,100031.27
2022-12-25T08:48:37.914Z,100032.02
2022-12-25T08:51:39.766Z,100029.73
2022-12-25T08:54:41.459Z,100026.58
2022-12-25T08:57:43.282Z,100024.49
2022-12-25T09:00:44.925Z,100023.48
2022-12-25T09:03:46.673Z,100013.36
2022-12-25T09:06:50.250Z,100006.60
2022-12-25T09:09:54.342Z,100001.61
2022-12-25T09:12:55.981Z,99999.67
2022-12-25T09:15:57.802Z,100007.02
2022-12-25T09:18:59.503Z,100019.89
2022-12-25T09:22:01.113Z,100035.01
2022-12-25T09:25:02.987Z,100045.52
2022-12-25T09:28:04.864Z,100045.38
2022-12-25T09:31:07.366Z,100045.30
2022-12-25T09:34:15.417Z,100048.16
2022-12-25T09:37:18.931Z,100050.65
2022-12-25T09:40:21.710Z,100049.27
2022-12-25T09:43:24.672Z,100054.17
2022-12-25T09:46:34.809Z,100054.46
2022-12-25T09:49:56.297Z,100048.05
2022-12-25T09:53:10.493Z,100047.38
2022-12-25T09:56:12.324Z,100049.18
2022-12-25T09:59:25.505Z,100055.35
2022-12-25T10:02:50.499Z,100057.94
2022-12-25T10:06:18.725Z,100058.17
2022-12-25T10:09:43.062Z,100062.23
2022-12-25T10:12:54.743Z,100070.13
2022-12-25T10:16:07.727Z,100070.30
2022-12-25T10:19:32.433Z,100069.94
2022-12-25T10:23:04.186Z,100073.39
2022-12-25T10:26:18.208Z,100082.13
2022-12-25T10:29:20.227Z,100083.67
2022-12-25T10:32:22.379Z,100082.94
2022-12-25T10:35:26.434Z,100084.13
2022-12-25T10:38:28.210Z,100077.43
2022-12-25T10:41:56.729Z,100068.77
2022-12-25T10:45:01.209Z,100064.66
2022-12-25T10:48:07.855Z,100060.84
2022-12-25T10:51:09.941Z,100063.11
2022-12-25T10:54:29.869Z,100057.16
2022-12-25T10:57:31.498Z,100048.02
2022-12-25T11:00:33.459Z,100043.17
2022-12-25T11:03:38.797Z,100042.68
2022-12-25T11:06:40.524Z,100040.11
2022-12-25T11:09:50.020Z,100030.52
2022-12-25T11:12:52.440Z,100024.17
2022-12-25T11:16:11.071Z,100011.63
2022-12-25T11:19:31.607Z,100010.99
2022-12-25T11:22:37.086Z,100015.29
2022-12-25T11:25:38.811Z,100010.52
2022-12-25T11:28:41.525Z,100013.34
2022-12-25T11:31:43.476Z,100005.73
2022-12-25T11:34:47.534Z,100006.30
2022-12-25T11:37:51.529Z,100008.98
2022-12-25T11:40:58.323Z,100005.67
2022-12-25T11:44:05.127Z,100000.23
2022-12-25T11:47:32.766Z,99999.75
2022-12-25T11:50:38.010Z,99997.77
2022-12-25T11:53:52.000Z,99999.14
2022-12-25T11:56:55.926Z,99997.70
2022-12-25T12:00:03.985Z,99999.95
2022-12-25T12:03:19.385Z,100005.23
2022-12-25T12:06:49.837Z,100004.32
2022-12-25T12:10:00.483Z,100003.41
2022-12-25T12:13:20.769Z,99998.90
2022-12-25T12:16:22.779Z,100002.66
2022-12-25T12:19:30.533Z,100005.09
2022-12-25T12:22:32.289Z,100003.23
2022-12-25T12:25:39.151Z,100006.34
2022-12-25T12:28:45.809Z,100005.94
2022-12-25T12:31:49.209Z,100007.93
2022-12-25T12:34:51.068Z,100000.55
2022-12-25T12:38:30.409Z,100001.47
2022-12-25T12:41:45.112Z,99996.47
2022-12-25T12:44:48.928Z,99995.08
2022-12-25T12:47:51.788Z,99994.15
2022-12-25T12:51:14.831Z,99996.63
2022-12-25T12:54:26.157Z,100000.20
2022-12-25T12:57:32.806Z,100001.42
2022-12-25T13:00:44.575Z,100000.90
2022-12-25T13:04:09.597Z,100008.80
2022-12-25T13:07:21.310Z,100010.40
2022-12-25T13:10:32.622Z,100001.22
2022-12-25T13:13:41.296Z,99999.90
2022-12-25T13:16:45.821Z,99995.94
2022-12-25T13:19:51.225Z,99994.52
2022-12-25T13:22:53.288Z,99994.83
2022-12-25T13:25:57.057Z,99996.68
2022-12-25T13:28:58.809Z,100000.54
2022-12-25T13:32:02.394Z,100001.64
2022-12-25T13:35:04.918Z,100006.91
2022-12-25T13:38:14.348Z,100009.81
2022-12-25T13:41:40.738Z,100006.98
2022-12-25T13:44:48.466Z,100003.95
2022-12-25T13:47:55.218Z,100006.17
2022-12-25T13:50:59.708Z,99996.80
2022-12-25T13:54:06.126Z,99994.30
2022-12-25T13:57:12.990Z,100004.96
2022-12-25T14:00:28.543Z,100008.59
2022-12-25T14:03:41.081Z,100004.28
2022-12-25T14:06:43.129Z,100007.08
2022-12-25T14:09:44.925Z,100008.23
2022-12-25T14:12:49.697Z,100003.45
2022-12-25T14:15:53.683Z,100004.45
2022-12-25T14:19:01.260Z,99997.81
2022-12-25T14:22:10.886Z,99988.66
2022-12-25T14:25:15.901Z,99989.10
2022-12-25T14:28:24.951Z,99992.40
2022-12-25T14:31:28.806Z,99984.94
2022-12-25T14:34:32.774Z,99983.59
2022-12-25T14:37:34.568Z,99984.35
2022-12-25T14:40:36.151Z,99983.96
2022-12-25T14:43:37.817Z,99989.71
2022-12-25T14:46:39.808Z,99992.95
2022-12-25T14:49:41.906Z,99999.18
2022-12-25T14:52:45.057Z,100006.23
2022-12-25T14:55:52.193Z,100007.78
2022-12-25T14:58:56.793Z,100011.23
2022-12-25T15:02:01.316Z,100000.44
2022-12-25T15:05:03.379Z,99995.16
2022-12-25T15:08:14.100Z,99995.23
2022-12-25T15:11:15.885Z,99990.31
2022-12-25T15:14:17.781Z,99985.69
2022-12-25T15:17:26.656Z,99977.44
2022-12-25T15:20:31.650Z,99981.92
2022-12-25T15:23:33.341Z,99986.09
2022-12-25T15:26:34.964Z,99992.13
2022-12-25T15:30:08.552Z,99995.68
2022-12-25T15:32:58.195Z,100012.88
2022-12-25T15:36:00.018Z,100024.45
2022-12-25T15:39:01.887Z,100026.81
2022-12-25T15:42:12.789Z,100027.63
2022-12-25T15:45:24.639Z,100030.84
2022-12-25T15:48:26.348Z,100028.39
2022-12-25T15:51:28.080Z,100025.39
2022-12-25T15:54:31.077Z,100020.27
2022-12-25T15:57:33.589Z,100022.85
2022-12-25T16:00:35.247Z,100035.67
2022-12-25T16:03:36.988Z,100041.55
2022-12-25T16:06:38.937Z,100035.45
2022-12-25T16:09:40.583Z,100029.89
2022-12-25T16:12:42.681Z,100031.64
2022-12-25T16:15:45.197Z,100023.14
2022-12-25T16:18:47.924Z,100013.93
2022-12-25T16:21:50.164Z,100009.73
2022-12-25T16:24:52.554Z,100000.03
2022-12-25T16:27:54.147Z,100001.44
2022-12-25T16:30:55.920Z,100001.96
2022-12-25T16:33:57.761Z,99991.55
2022-12-25T16:36:59.387Z,99984.25
2022-12-25T16:40:01.458Z,99980.83
2022-12-25T16:43:03.159Z,99971.41
2022-12-25T16:46:11.781Z,99967.13
2022-12-25T16:49:13.483Z,99957.20
2022-12-25T16:52:15.094Z,99946.44
2022-12-25T16:55:16.888Z,99943.17
2022-12-25T16:58:18.599Z,99940.95
2022-12-25T17:01:20.779Z,99949.67
2022-12-25T17:04:22.919Z,99962.16
2022-12-25T17:07:24.653Z,99967.67
2022-12-25T17:10:26.254Z,99971.31
2022-12-25T17:13:27.961Z,99972.52
2022-12-25T17:16:33.034Z,99974.75
2022-12-25T17:19:34.971Z,99965.88
2022-12-25T17:22:36.688Z,99954.89
2022-12-25T17:25:38.295Z,99954.67
2022-12-25T17:28:40.106Z,99951.92
2022-12-25T17:31:41.905Z,99945.20
2022-12-25T17:34:43.835Z,99935.26
2022-12-25T17:37:45.530Z,99934.67
2022-12-25T17:40:54.753Z,99938.05
2022-12-25T17:43:56.534Z,99937.70
2022-12-25T17:46:58.264Z,99929.98
2022-12-25T17:50:00.271Z,99922.47
2022-12-25T17:53:02.706Z,99930.83
2022-12-25T17:56:05.723Z,99932.70
2022-12-25T17:59:10.078Z,99924.88
2022-12-25T18:02:11.998Z,99915.38
2022-12-25T18:05:13.920Z,99915.44
2022-12-25T18:08:16.189Z,99906.63
2022-12-25T18:11:21.388Z,99899.55
2022-12-25T18:14:23.268Z,99893.15
2022-12-25T18:17:24.974Z,99887.92
2022-12-25T18:20:26.532Z,99887.96
2022-12-25T18:23:28.619Z,99895.48
2022-12-25T18:26:30.475Z,99903.52
2022-12-25T18:29:32.252Z,99911.55
2022-12-25T18:32:34.104Z,99914.96
2022-12-25T18:35:39.069Z,99912.77
2022-12-25T18:38:40.948Z,99912.60
2022-12-25T18:42:01.766Z,99912.09
2022-12-25T18:45:03.995Z,99914.65
2022-12-25T18:48:06.476Z,99915.00
2022-12-25T18:51:11.196Z,99910.92
2022-12-25T18:54:12.967Z,99911.77
2022-12-25T18:57:14.533Z,99914.86
2022-12-25T19:00:16.694Z,99920.65
2022-12-25T19:03:18.471Z,99911.29
2022-12-25T19:06:23.441Z,99895.59
2022-12-25T19:09:25.163Z,99901.89
2022-12-25T19:12:26.743Z,99919.61
2022-12-25T19:15:28.422Z,99919.77
2022-12-25T19:18:30.299Z,99916.36
2022-12-25T19:21:32.096Z,99917.89
2022-12-25T19:24:33.854Z,99912.09
2022-12-25T19:27:35.768Z,99907.34
2022-12-25T19:30:38.467Z,99903.24
2022-12-25T19:33:41.603Z,99898.29
2022-12-25T19:36:43.190Z,99893.36
2022-12-25T19:39:46.905Z,99895.23
2022-12-25T19:42:48.782Z,99894.54
2022-12-25T19:45:50.794Z,99894.19
2022-12-25T19:48:52.569Z,99890.62
2022-12-25T19:51:54.258Z,99887.20
2022-12-25T19:54:56.064Z,99883.09
2022-12-25T19:57:59.269Z,99883.61
2022-12-25T20:01:05.636Z,99874.58
2022-12-25T20:04:09.848Z,99870.84
2022-12-25T20:07:11.647Z,99875.91
2022-12-25T20:10:13.269Z,99878.44
2022-12-25T20:13:15.269Z,99875.17
2022-12-25T20:16:17.748Z,99871.61
2022-12-25T20:19:19.394Z,99862.22
2022-12-25T20:22:21.135Z,99852.02
2022-12-25T20:25:22.884Z,99837.70
2022-12-25T20:28:24.590Z,99829.38
2022-12-25T20:31:27.605Z,99826.81
2022-12-25T20:34:30.568Z,99831.08
2022-12-25T20:37:32.310Z,99830.59
2022-12-25T20:40:53.071Z,99838.64
2022-12-25T20:43:56.220Z,99839.86
2022-12-25T20:47:01.051Z,99835.27
2022-12-25T20:50:02.814Z,99833.91
2022-12-25T20:53:04.416Z,99834.94
2022-12-25T20:56:06.738Z,99827.27
2022-12-25T20:59:09.861Z,99821.83
2022-12-25T21:02:33.486Z,99815.71
2022-12-25T21:05:34.113Z,99806.02
2022-12-25T21:08:36.544Z,99803.09
2022-12-25T21:11:39.374Z,99815.83
2022-12-25T21:14:43.071Z,99807.79
2022-12-25T21:17:45.826Z,99804.50
2022-12-25T21:20:51.332Z,99798.19
2022-12-25T21:23:55.299Z,99789.98
2022-12-25T21:26:56.940Z,99785.02
2022-12-25T21:29:58.650Z,99780.56
2022-12-25T21:33:36.109Z,99770.14
2022-12-25T21:36:37.900Z,99769.13
2022-12-25T21:39:39.470Z,99765.04
2022-12-25T21:42:41.108Z,99765.85
2022-12-25T21:45:42.875Z,99760.88
2022-12-25T21:48:44.596Z,99753.19
2022-12-25T21:52:05.283Z,99751.30
2022-12-25T21:55:07.308Z,99751.15
2022-12-25T21:58:09.073Z,99755.76
2022-12-25T22:01:11.785Z,99751.36
2022-12-25T22:04:15.299Z,99750.20
2022-12-25T22:07:19.914Z,99733.35
2022-12-25T22:10:21.623Z,99729.27
2022-12-25T22:13:42.360Z,99733.20
2022-12-25T22:17:02.978Z,99728.95
2022-12-25T22:20:06.948Z,99732.55
2022-12-25T22:23:08.789Z,99747.23
2022-12-25T22:26:13.361Z,99756.27
2022-12-25T22:29:17.704Z,99747.73
2022-12-25T22:32:19.583Z,99734.94
2022-12-25T22:35:23.647Z,99734.58
2022-12-25T22:38:25.293Z,99729.80
2022-12-25T22:41:33.086Z,99724.51
2022-12-25T22:44:35.910Z,99725.83
2022-12-25T22:47:37.935Z,99720.88
2022-12-25T22:50:39.648Z,99724.45
2022-12-25T22:53:41.159Z,99716.08
2022-12-25T22:56:48.246Z,99701.06
2022-12-25T22:59:52.847Z,99686.71
2022-12-25T23:02:54.729Z,99687.40
2022-12-25T23:05:57.124Z,99689.93
2022-12-25T23:08:59.009Z,99681.92
2022-12-25T23:12:00.960Z,99676.45
2022-12-25T23:15:02.896Z,99671.86
2022-12-25T23:18:23.887Z,99671.52
2022-12-25T23:21:53.116Z,99673.58
2022-12-25T23:25:14.649Z,99670.17
2022-12-25T23:28:36.371Z,99664.35
2022-12-25T23:31:39.820Z,99662.13
2022-12-25T23:34:44.685Z,99663.80
2022-12-25T23:37:46.723Z,99661.21
2022-12-25T23:40:48.542Z,99655.73
2022-12-25T23:43:50.586Z,99656.21
2022-12-25T23:46:53.649Z,99650.39
2022-12-25T23:49:55.639Z,99645.42
2022-12-25T23:52:57.468Z,99639.25
2022-12-25T23:55:59.427Z,99643.86
2022-12-25T23:59:01.196Z,99649.48
